sensor_id;sensor_type;location;lat;lon;timestamp;temperature;humidity
11246;DHT22;59870;50.106;8.580;2023-02-03T00:02:05;12.40;91.40
11246;DHT22;59870;50.106;8.580;2023-02-03T00:04:32;12.40;91.40
11246;DHT22;59870;50.106;8.580;2023-02-03T00:07:00;12.30;91.40
11246;DHT22;59870;50.106;8.580;2023-02-03T00:09:27;12.40;91.50
11246;DHT22;59870;50.106;8.580;2023-02-03T00:11:55;12.60;91.60
11246;DHT22;59870;50.106;8.580;2023-02-03T00:14:23;12.30;91.40
11246;DHT22;59870;50.106;8.580;2023-02-03T00:16:51;12.40;91.60
11246;DHT22;59870;50.106;8.580;2023-02-03T00:19:18;12.60;91.60
11246;DHT22;59870;50.106;8.580;2023-02-03T00:21:46;12.40;91.60
11246;DHT22;59870;50.106;8.580;2023-02-03T00:24:13;12.60;91.60
11246;DHT22;59870;50.106;8.580;2023-02-03T00:26:42;12.30;91.60
11246;DHT22;59870;50.106;8.580;2023-02-03T00:29:09;12.40;91.80
11246;DHT22;59870;50.106;8.580;2023-02-03T00:31:38;12.40;91.70
11246;DHT22;59870;50.106;8.580;2023-02-03T00:34:05;12.40;91.80
11246;DHT22;59870;50.106;8.580;2023-02-03T00:36:33;12.40;91.80
11246;DHT22;59870;50.106;8.580;2023-02-03T00:39:00;12.40;91.80
11246;DHT22;59870;50.106;8.580;2023-02-03T00:41:29;12.40;91.80
11246;DHT22;59870;50.106;8.580;2023-02-03T00:43:57;12.40;92.00
11246;DHT22;59870;50.106;8.580;2023-02-03T00:46:25;12.40;91.80
11246;DHT22;59870;50.106;8.580;2023-02-03T00:48:52;12.40;91.80
11246;DHT22;59870;50.106;8.580;2023-02-03T00:51:19;12.40;91.80
11246;DHT22;59870;50.106;8.580;2023-02-03T00:53:48;12.40;91.80
11246;DHT22;59870;50.106;8.580;2023-02-03T00:56:15;12.40;91.80
11246;DHT22;59870;50.106;8.580;2023-02-03T00:58:43;12.40;91.80
11246;DHT22;59870;50.106;8.580;2023-02-03T01:01:11;12.40;92.10
11246;DHT22;59870;50.106;8.580;2023-02-03T01:03:39;12.40;91.80
11246;DHT22;59870;50.106;8.580;2023-02-03T01:06:15;12.40;91.90
11246;DHT22;59870;50.106;8.580;2023-02-03T01:08:43;12.30;91.90
11246;DHT22;59870;50.106;8.580;2023-02-03T01:11:13;12.30;92.10
11246;DHT22;59870;50.106;8.580;2023-02-03T01:13:43;12.30;92.10
11246;DHT22;59870;50.106;8.580;2023-02-03T01:16:13;12.30;92.20
11246;DHT22;59870;50.106;8.580;2023-02-03T01:18:42;12.20;92.30
11246;DHT22;59870;50.106;8.580;2023-02-03T01:21:14;12.20;92.30
11246;DHT22;59870;50.106;8.580;2023-02-03T01:23:43;12.10;92.40
11246;DHT22;59870;50.106;8.580;2023-02-03T01:26:16;12.10;92.40
11246;DHT22;59870;50.106;8.580;2023-02-03T01:28:52;12.20;92.50
11246;DHT22;59870;50.106;8.580;2023-02-03T01:31:25;12.10;92.70
11246;DHT22;59870;50.106;8.580;2023-02-03T01:33:54;12.10;92.70
11246;DHT22;59870;50.106;8.580;2023-02-03T01:36:24;12.10;92.50
11246;DHT22;59870;50.106;8.580;2023-02-03T01:38:52;12.10;92.70
11246;DHT22;59870;50.106;8.580;2023-02-03T01:41:24;12.40;93.00
11246;DHT22;59870;50.106;8.580;2023-02-03T01:43:54;12.00;92.70
11246;DHT22;59870;50.106;8.580;2023-02-03T01:46:29;12.00;92.80
11246;DHT22;59870;50.106;8.580;2023-02-03T01:49:11;12.00;92.80
11246;DHT22;59870;50.106;8.580;2023-02-03T01:51:41;12.00;93.00
11246;DHT22;59870;50.106;8.580;2023-02-03T01:54:14;12.00;93.10
11246;DHT22;59870;50.106;8.580;2023-02-03T01:56:45;12.10;93.00
11246;DHT22;59870;50.106;8.580;2023-02-03T01:59:16;12.10;92.90
11246;DHT22;59870;50.106;8.580;2023-02-03T02:01:45;12.30;93.10
11246;DHT22;59870;50.106;8.580;2023-02-03T02:04:13;12.10;93.00
11246;DHT22;59870;50.106;8.580;2023-02-03T02:06:41;12.10;93.00
11246;DHT22;59870;50.106;8.580;2023-02-03T02:09:11;12.30;92.90
11246;DHT22;59870;50.106;8.580;2023-02-03T02:11:41;12.30;93.10
11246;DHT22;59870;50.106;8.580;2023-02-03T02:14:09;12.10;93.00
11246;DHT22;59870;50.106;8.580;2023-02-03T02:16:48;12.10;93.10
11246;DHT22;59870;50.106;8.580;2023-02-03T02:24:58;12.10;93.40
11246;DHT22;59870;50.106;8.580;2023-02-03T02:35:53;12.10;93.50
11246;DHT22;59870;50.106;8.580;2023-02-03T02:43:46;12.10;93.30
11246;DHT22;59870;50.106;8.580;2023-02-03T02:46:18;12.30;93.50
11246;DHT22;59870;50.106;8.580;2023-02-03T02:48:56;12.10;93.40
11246;DHT22;59870;50.106;8.580;2023-02-03T02:51:27;12.10;93.60
11246;DHT22;59870;50.106;8.580;2023-02-03T02:53:59;12.20;93.40
11246;DHT22;59870;50.106;8.580;2023-02-03T02:56:30;12.20;93.70
11246;DHT22;59870;50.106;8.580;2023-02-03T02:59:00;12.20;93.40
11246;DHT22;59870;50.106;8.580;2023-02-03T03:01:29;12.40;93.80
11246;DHT22;59870;50.106;8.580;2023-02-03T03:03:59;12.20;93.50
11246;DHT22;59870;50.106;8.580;2023-02-03T03:06:47;12.20;93.50
11246;DHT22;59870;50.106;8.580;2023-02-03T03:09:19;12.30;93.70
11246;DHT22;59870;50.106;8.580;2023-02-03T03:12:00;12.30;93.70
11246;DHT22;59870;50.106;8.580;2023-02-03T03:14:31;12.20;94.00
11246;DHT22;59870;50.106;8.580;2023-02-03T03:17:03;12.20;94.10
11246;DHT22;59870;50.106;8.580;2023-02-03T03:19:37;12.20;94.20
11246;DHT22;59870;50.106;8.580;2023-02-03T03:22:07;12.20;94.00
11246;DHT22;59870;50.106;8.580;2023-02-03T03:24:40;12.20;94.20
11246;DHT22;59870;50.106;8.580;2023-02-03T03:27:22;12.10;94.00
11246;DHT22;59870;50.106;8.580;2023-02-03T03:30:01;12.10;94.40
11246;DHT22;59870;50.106;8.580;2023-02-03T03:32:31;12.10;94.30
11246;DHT22;59870;50.106;8.580;2023-02-03T03:35:00;12.10;94.40
11246;DHT22;59870;50.106;8.580;2023-02-03T03:37:37;12.10;94.80
11246;DHT22;59870;50.106;8.580;2023-02-03T03:45:33;12.00;94.60
11246;DHT22;59870;50.106;8.580;2023-02-03T03:50:49;12.00;94.70
11246;DHT22;59870;50.106;8.580;2023-02-03T03:53:18;12.20;94.50
11246;DHT22;59870;50.106;8.580;2023-02-03T03:55:49;12.20;94.50
11246;DHT22;59870;50.106;8.580;2023-02-03T03:58:23;12.00;94.50
11246;DHT22;59870;50.106;8.580;2023-02-03T04:00:55;12.00;94.30
11246;DHT22;59870;50.106;8.580;2023-02-03T04:03:29;12.00;94.20
11246;DHT22;59870;50.106;8.580;2023-02-03T04:05:58;12.10;94.20
11246;DHT22;59870;50.106;8.580;2023-02-03T04:08:26;12.10;94.40
11246;DHT22;59870;50.106;8.580;2023-02-03T04:10:53;12.00;94.00
11246;DHT22;59870;50.106;8.580;2023-02-03T04:13:21;12.30;94.20
11246;DHT22;59870;50.106;8.580;2023-02-03T04:15:48;12.10;94.10
11246;DHT22;59870;50.106;8.580;2023-02-03T04:18:16;12.10;94.10
11246;DHT22;59870;50.106;8.580;2023-02-03T04:20:43;12.50;94.30
11246;DHT22;59870;50.106;8.580;2023-02-03T04:23:11;12.10;94.20
11246;DHT22;59870;50.106;8.580;2023-02-03T04:25:38;12.10;94.30
11246;DHT22;59870;50.106;8.580;2023-02-03T04:28:06;12.10;94.30
11246;DHT22;59870;50.106;8.580;2023-02-03T04:30:34;12.00;94.20
11246;DHT22;59870;50.106;8.580;2023-02-03T04:33:01;12.00;94.20
11246;DHT22;59870;50.106;8.580;2023-02-03T04:35:28;12.20;94.30
11246;DHT22;59870;50.106;8.580;2023-02-03T04:37:56;12.00;94.40
11246;DHT22;59870;50.106;8.580;2023-02-03T04:40:24;12.00;94.60
11246;DHT22;59870;50.106;8.580;2023-02-03T04:42:52;12.10;94.60
11246;DHT22;59870;50.106;8.580;2023-02-03T04:45:19;12.00;94.60
11246;DHT22;59870;50.106;8.580;2023-02-03T04:47:50;12.00;94.70
11246;DHT22;59870;50.106;8.580;2023-02-03T04:50:20;12.00;95.20
11246;DHT22;59870;50.106;8.580;2023-02-03T04:52:48;12.00;95.00
11246;DHT22;59870;50.106;8.580;2023-02-03T04:55:15;12.00;95.20
11246;DHT22;59870;50.106;8.580;2023-02-03T04:57:43;12.00;95.20
11246;DHT22;59870;50.106;8.580;2023-02-03T05:00:10;12.00;95.40
11246;DHT22;59870;50.106;8.580;2023-02-03T05:02:38;12.00;95.60
11246;DHT22;59870;50.106;8.580;2023-02-03T05:05:06;12.00;95.40
11246;DHT22;59870;50.106;8.580;2023-02-03T05:07:33;12.00;95.30
11246;DHT22;59870;50.106;8.580;2023-02-03T05:10:01;12.00;95.30
11246;DHT22;59870;50.106;8.580;2023-02-03T05:12:29;11.90;95.10
11246;DHT22;59870;50.106;8.580;2023-02-03T05:14:58;12.00;95.30
11246;DHT22;59870;50.106;8.580;2023-02-03T05:17:25;12.00;95.30
11246;DHT22;59870;50.106;8.580;2023-02-03T05:19:53;12.00;95.10
11246;DHT22;59870;50.106;8.580;2023-02-03T05:22:21;12.10;95.20
11246;DHT22;59870;50.106;8.580;2023-02-03T05:24:48;12.00;95.00
11246;DHT22;59870;50.106;8.580;2023-02-03T05:27:15;12.00;95.00
11246;DHT22;59870;50.106;8.580;2023-02-03T05:29:43;12.00;94.90
11246;DHT22;59870;50.106;8.580;2023-02-03T05:32:11;12.00;94.80
11246;DHT22;59870;50.106;8.580;2023-02-03T05:34:39;12.20;94.80
11246;DHT22;59870;50.106;8.580;2023-02-03T05:37:08;12.00;94.80
11246;DHT22;59870;50.106;8.580;2023-02-03T05:39:36;12.00;94.70
11246;DHT22;59870;50.106;8.580;2023-02-03T05:42:03;12.00;94.60
11246;DHT22;59870;50.106;8.580;2023-02-03T05:44:31;12.10;94.50
11246;DHT22;59870;50.106;8.580;2023-02-03T05:46:58;12.30;94.70
11246;DHT22;59870;50.106;8.580;2023-02-03T05:49:26;12.10;94.60
11246;DHT22;59870;50.106;8.580;2023-02-03T05:51:54;12.20;94.50
11246;DHT22;59870;50.106;8.580;2023-02-03T05:54:22;12.00;94.40
11246;DHT22;59870;50.106;8.580;2023-02-03T05:56:50;12.00;94.70
11246;DHT22;59870;50.106;8.580;2023-02-03T05:59:17;12.00;94.50
11246;DHT22;59870;50.106;8.580;2023-02-03T06:01:45;12.00;94.50
11246;DHT22;59870;50.106;8.580;2023-02-03T06:04:13;12.00;94.60
11246;DHT22;59870;50.106;8.580;2023-02-03T06:06:40;12.00;94.30
11246;DHT22;59870;50.106;8.580;2023-02-03T06:09:08;12.20;94.40
11246;DHT22;59870;50.106;8.580;2023-02-03T06:11:35;12.20;94.50
11246;DHT22;59870;50.106;8.580;2023-02-03T06:14:03;12.00;94.30
11246;DHT22;59870;50.106;8.580;2023-02-03T06:16:31;12.20;94.30
11246;DHT22;59870;50.106;8.580;2023-02-03T06:18:58;12.00;94.30
11246;DHT22;59870;50.106;8.580;2023-02-03T06:21:27;12.20;94.40
11246;DHT22;59870;50.106;8.580;2023-02-03T06:23:55;12.00;94.30
11246;DHT22;59870;50.106;8.580;2023-02-03T06:26:23;12.20;94.40
11246;DHT22;59870;50.106;8.580;2023-02-03T06:28:51;12.00;94.40
11246;DHT22;59870;50.106;8.580;2023-02-03T06:31:19;12.00;94.20
11246;DHT22;59870;50.106;8.580;2023-02-03T06:33:46;12.00;94.40
11246;DHT22;59870;50.106;8.580;2023-02-03T06:36:14;12.00;94.20
11246;DHT22;59870;50.106;8.580;2023-02-03T06:38:41;12.00;94.20
11246;DHT22;59870;50.106;8.580;2023-02-03T06:41:09;11.60;93.90
11246;DHT22;59870;50.106;8.580;2023-02-03T06:44:16;12.20;94.20
11246;DHT22;59870;50.106;8.580;2023-02-03T06:46:44;12.00;94.30
11246;DHT22;59870;50.106;8.580;2023-02-03T06:49:11;12.00;94.20
11246;DHT22;59870;50.106;8.580;2023-02-03T06:51:39;12.00;94.00
11246;DHT22;59870;50.106;8.580;2023-02-03T06:54:06;12.20;94.20
11246;DHT22;59870;50.106;8.580;2023-02-03T06:56:34;12.00;94.20
11246;DHT22;59870;50.106;8.580;2023-02-03T06:59:02;12.20;94.00
11246;DHT22;59870;50.106;8.580;2023-02-03T07:01:31;12.20;94.40
11246;DHT22;59870;50.106;8.580;2023-02-03T07:04:00;12.20;94.10
11246;DHT22;59870;50.106;8.580;2023-02-03T07:06:42;12.20;94.00
11246;DHT22;59870;50.106;8.580;2023-02-03T07:15:38;12.00;94.30
11246;DHT22;59870;50.106;8.580;2023-02-03T07:18:07;12.20;94.10
11246;DHT22;59870;50.106;8.580;2023-02-03T07:20:34;12.00;94.00
11246;DHT22;59870;50.106;8.580;2023-02-03T07:23:02;12.00;94.00
11246;DHT22;59870;50.106;8.580;2023-02-03T07:25:31;12.00;93.90
11246;DHT22;59870;50.106;8.580;2023-02-03T07:27:58;12.00;93.80
11246;DHT22;59870;50.106;8.580;2023-02-03T07:30:27;12.20;93.90
11246;DHT22;59870;50.106;8.580;2023-02-03T07:32:58;12.10;93.70
11246;DHT22;59870;50.106;8.580;2023-02-03T07:35:28;12.10;93.60
11246;DHT22;59870;50.106;8.580;2023-02-03T07:37:58;12.10;93.60
11246;DHT22;59870;50.106;8.580;2023-02-03T07:40:28;12.30;93.60
11246;DHT22;59870;50.106;8.580;2023-02-03T07:42:55;12.10;93.60
11246;DHT22;59870;50.106;8.580;2023-02-03T07:45:23;12.40;93.80
11246;DHT22;59870;50.106;8.580;2023-02-03T07:47:51;12.30;93.50
11246;DHT22;59870;50.106;8.580;2023-02-03T07:50:18;12.10;93.40
11246;DHT22;59870;50.106;8.580;2023-02-03T07:52:46;12.10;93.40
11246;DHT22;59870;50.106;8.580;2023-02-03T07:55:13;12.10;93.30
11246;DHT22;59870;50.106;8.580;2023-02-03T07:57:40;12.10;93.20
11246;DHT22;59870;50.106;8.580;2023-02-03T08:00:11;12.20;93.10
11246;DHT22;59870;50.106;8.580;2023-02-03T08:02:41;12.20;93.50
11246;DHT22;59870;50.106;8.580;2023-02-03T08:05:10;12.20;93.20
11246;DHT22;59870;50.106;8.580;2023-02-03T08:07:39;12.40;93.40
11246;DHT22;59870;50.106;8.580;2023-02-03T08:10:12;12.30;93.10
11246;DHT22;59870;50.106;8.580;2023-02-03T08:12:40;12.30;92.90
11246;DHT22;59870;50.106;8.580;2023-02-03T08:15:14;12.50;93.10
11246;DHT22;59870;50.106;8.580;2023-02-03T08:17:41;12.50;92.90
11246;DHT22;59870;50.106;8.580;2023-02-03T08:26:07;12.30;92.90
11246;DHT22;59870;50.106;8.580;2023-02-03T08:28:35;12.30;92.60
11246;DHT22;59870;50.106;8.580;2023-02-03T08:37:11;12.40;92.80
11246;DHT22;59870;50.106;8.580;2023-02-03T08:39:39;12.70;92.80
11246;DHT22;59870;50.106;8.580;2023-02-03T08:42:07;12.90;92.90
11246;DHT22;59870;50.106;8.580;2023-02-03T08:44:35;12.50;92.70
11246;DHT22;59870;50.106;8.580;2023-02-03T08:47:03;12.50;92.70
11246;DHT22;59870;50.106;8.580;2023-02-03T08:49:31;12.50;92.40
11246;DHT22;59870;50.106;8.580;2023-02-03T08:51:59;12.50;92.40
11246;DHT22;59870;50.106;8.580;2023-02-03T08:54:26;12.60;92.30
11246;DHT22;59870;50.106;8.580;2023-02-03T08:56:54;12.60;92.20
11246;DHT22;59870;50.106;8.580;2023-02-03T08:59:21;12.60;92.10
11246;DHT22;59870;50.106;8.580;2023-02-03T09:01:49;12.60;91.90
11246;DHT22;59870;50.106;8.580;2023-02-03T09:04:18;12.70;91.90
11246;DHT22;59870;50.106;8.580;2023-02-03T09:06:51;12.70;91.90
11246;DHT22;59870;50.106;8.580;2023-02-03T09:09:21;12.80;91.80
11246;DHT22;59870;50.106;8.580;2023-02-03T09:11:49;12.80;91.70
11246;DHT22;59870;50.106;8.580;2023-02-03T09:14:16;13.00;91.50
11246;DHT22;59870;50.106;8.580;2023-02-03T09:16:44;12.90;91.40
11246;DHT22;59870;50.106;8.580;2023-02-03T09:19:11;12.90;91.30
11246;DHT22;59870;50.106;8.580;2023-02-03T09:21:39;12.90;91.20
11246;DHT22;59870;50.106;8.580;2023-02-03T09:24:11;12.90;91.20
11246;DHT22;59870;50.106;8.580;2023-02-03T09:26:38;12.90;91.00
11246;DHT22;59870;50.106;8.580;2023-02-03T09:29:07;12.90;91.20
11246;DHT22;59870;50.106;8.580;2023-02-03T09:32:01;12.60;90.70
11246;DHT22;59870;50.106;8.580;2023-02-03T09:38:21;13.00;91.40
11246;DHT22;59870;50.106;8.580;2023-02-03T09:40:55;13.10;91.00
11246;DHT22;59870;50.106;8.580;2023-02-03T09:43:42;13.10;91.00
11246;DHT22;59870;50.106;8.580;2023-02-03T09:46:22;13.10;90.90
11246;DHT22;59870;50.106;8.580;2023-02-03T09:49:15;13.10;90.80
11246;DHT22;59870;50.106;8.580;2023-02-03T09:51:51;13.20;90.70
11246;DHT22;59870;50.106;8.580;2023-02-03T09:54:47;13.20;90.70
11246;DHT22;59870;50.106;8.580;2023-02-03T09:57:23;13.20;90.50
11246;DHT22;59870;50.106;8.580;2023-02-03T09:59:52;13.20;90.50
11246;DHT22;59870;50.106;8.580;2023-02-03T10:02:47;13.50;90.70
11246;DHT22;59870;50.106;8.580;2023-02-03T10:18:16;13.00;90.40
11246;DHT22;59870;50.106;8.580;2023-02-03T10:39:18;13.40;90.30
11246;DHT22;59870;50.106;8.580;2023-02-03T10:41:50;13.00;90.10
11246;DHT22;59870;50.106;8.580;2023-02-03T10:57:48;13.50;90.00
11246;DHT22;59870;50.106;8.580;2023-02-03T11:00:33;13.10;89.50
11246;DHT22;59870;50.106;8.580;2023-02-03T11:07:32;13.80;90.20
11246;DHT22;59870;50.106;8.580;2023-02-03T11:10:00;13.90;90.10
11246;DHT22;59870;50.106;8.580;2023-02-03T11:16:06;13.50;89.80
11246;DHT22;59870;50.106;8.580;2023-02-03T11:20:00;13.20;90.00
11246;DHT22;59870;50.106;8.580;2023-02-03T11:22:35;13.70;90.10
11246;DHT22;59870;50.106;8.580;2023-02-03T11:25:23;13.60;90.20
11246;DHT22;59870;50.106;8.580;2023-02-03T11:27:54;13.60;90.20
11246;DHT22;59870;50.106;8.580;2023-02-03T11:30:25;13.70;90.20
11246;DHT22;59870;50.106;8.580;2023-02-03T11:32:54;13.70;90.40
11246;DHT22;59870;50.106;8.580;2023-02-03T11:35:27;13.70;90.30
11246;DHT22;59870;50.106;8.580;2023-02-03T11:37:59;13.70;90.30
11246;DHT22;59870;50.106;8.580;2023-02-03T11:40:28;13.70;90.30
11246;DHT22;59870;50.106;8.580;2023-02-03T11:45:26;13.80;90.40
11246;DHT22;59870;50.106;8.580;2023-02-03T12:51:14;13.40;92.90
11246;DHT22;59870;50.106;8.580;2023-02-03T13:31:07;13.40;93.50
11246;DHT22;59870;50.106;8.580;2023-02-03T14:01:50;13.50;94.40
11246;DHT22;59870;50.106;8.580;2023-02-03T14:05:48;13.50;94.50
11246;DHT22;59870;50.106;8.580;2023-02-03T14:16:36;13.70;95.10
11246;DHT22;59870;50.106;8.580;2023-02-03T14:22:03;13.40;95.30
11246;DHT22;59870;50.106;8.580;2023-02-03T14:25:03;13.40;95.50
11246;DHT22;59870;50.106;8.580;2023-02-03T14:34:08;13.40;95.70
11246;DHT22;59870;50.106;8.580;2023-02-03T15:48:43;13.40;96.20
11246;DHT22;59870;50.106;8.580;2023-02-03T15:51:18;13.30;96.20
11246;DHT22;59870;50.106;8.580;2023-02-03T16:04:12;13.40;96.20
11246;DHT22;59870;50.106;8.580;2023-02-03T16:29:38;13.50;96.50
11246;DHT22;59870;50.106;8.580;2023-02-03T16:39:51;13.50;96.50
11246;DHT22;59870;50.106;8.580;2023-02-03T16:43:25;13.40;96.30
11246;DHT22;59870;50.106;8.580;2023-02-03T16:55:31;13.50;96.40
11246;DHT22;59870;50.106;8.580;2023-02-03T16:57:59;13.40;96.50
11246;DHT22;59870;50.106;8.580;2023-02-03T17:00:26;13.40;96.50
11246;DHT22;59870;50.106;8.580;2023-02-03T17:02:54;13.40;96.50
11246;DHT22;59870;50.106;8.580;2023-02-03T17:05:24;13.40;96.60
11246;DHT22;59870;50.106;8.580;2023-02-03T17:07:51;13.40;96.70
11246;DHT22;59870;50.106;8.580;2023-02-03T17:10:52;13.40;96.70
11246;DHT22;59870;50.106;8.580;2023-02-03T17:23:43;13.40;96.70
11246;DHT22;59870;50.106;8.580;2023-02-03T17:27:57;13.40;96.90
11246;DHT22;59870;50.106;8.580;2023-02-03T17:40:23;13.30;97.10
11246;DHT22;59870;50.106;8.580;2023-02-03T17:43:52;13.40;97.40
11246;DHT22;59870;50.106;8.580;2023-02-03T17:52:05;12.90;96.90
11246;DHT22;59870;50.106;8.580;2023-02-03T23:56:47;12.80;87.80
